createdAt,value
2023-04-08T00:01:02.364Z,3.33
2023-04-08T00:03:29.304Z,3.03
2023-04-08T00:05:56.307Z,2.90
2023-04-08T00:08:23.229Z,2.83
2023-04-08T00:10:50.241Z,2.97
2023-04-08T00:13:17.168Z,3.13
2023-04-08T00:15:44.024Z,2.85
2023-04-08T00:18:11.111Z,2.92
2023-04-08T00:20:38.189Z,3.17
2023-04-08T00:23:05.203Z,2.70
2023-04-08T00:25:34.678Z,2.55
2023-04-08T00:28:01.681Z,2.83
2023-04-08T00:30:28.784Z,3.30
2023-04-08T00:32:55.921Z,3.00
2023-04-08T00:35:23.152Z,2.97
2023-04-08T00:37:50.127Z,3.33
2023-04-08T00:40:17.226Z,3.17
2023-04-08T00:42:44.232Z,3.00
2023-04-08T00:45:11.713Z,3.00
2023-04-08T00:47:38.570Z,3.17
2023-04-08T00:50:09.961Z,3.40
2023-04-08T00:52:37.244Z,3.03
2023-04-08T00:55:04.678Z,2.90
2023-04-08T00:57:31.786Z,2.75
2023-04-08T01:00:00.037Z,2.80
2023-04-08T01:02:39.730Z,3.45
2023-04-08T01:05:33.985Z,3.13
2023-04-08T01:08:05.825Z,2.80
2023-04-08T01:10:35.177Z,2.90
2023-04-08T01:13:10.329Z,2.72
2023-04-08T01:15:39.562Z,3.25
2023-04-08T01:18:09.992Z,2.55
2023-04-08T01:20:38.053Z,3.28
2023-04-08T01:23:44.291Z,4.90
2023-04-08T01:26:21.752Z,2.80
2023-04-08T01:28:51.680Z,2.95
2023-04-08T01:31:20.047Z,3.20
2023-04-08T01:33:49.426Z,3.08
2023-04-08T01:36:18.067Z,3.65
2023-04-08T01:38:46.445Z,2.88
2023-04-08T01:41:13.478Z,2.70
2023-04-08T01:43:42.795Z,2.50
2023-04-08T01:46:11.775Z,2.80
2023-04-08T01:48:40.353Z,2.65
2023-04-08T01:51:09.956Z,2.85
2023-04-08T01:53:38.041Z,2.67
2023-04-08T01:56:13.161Z,2.80
2023-04-08T01:58:43.096Z,2.75
2023-04-08T02:01:13.292Z,3.08
2023-04-08T02:03:44.674Z,2.55
2023-04-08T02:06:12.071Z,2.70
2023-04-08T02:08:39.106Z,2.60
2023-04-08T02:11:07.025Z,2.30
2023-04-08T02:13:34.302Z,3.05
2023-04-08T02:16:19.005Z,2.70
2023-04-08T02:18:55.644Z,2.65
2023-04-08T02:21:28.157Z,2.83
2023-04-08T02:24:06.860Z,2.83
2023-04-08T02:26:36.316Z,3.10
2023-04-08T02:29:05.989Z,2.65
2023-04-08T02:31:34.703Z,2.63
2023-04-08T02:34:02.276Z,2.78
2023-04-08T02:36:29.581Z,2.55
2023-04-08T02:38:56.423Z,3.25
2023-04-08T02:41:23.483Z,2.72
2023-04-08T02:44:02.523Z,2.90
2023-04-08T02:46:29.687Z,2.83
2023-04-08T02:49:03.875Z,2.70
2023-04-08T02:51:30.809Z,2.72
2023-04-08T02:53:57.761Z,2.67
2023-04-08T02:56:24.765Z,2.88
2023-04-08T02:58:52.441Z,2.63
2023-04-08T03:01:21.264Z,2.90
2023-04-08T03:03:48.307Z,2.90
2023-04-08T03:06:15.822Z,2.85
2023-04-08T03:08:42.993Z,2.85
2023-04-08T03:11:10.633Z,2.72
2023-04-08T03:13:37.720Z,2.92
2023-04-08T03:16:05.004Z,3.03
2023-04-08T03:18:32.439Z,2.97
2023-04-08T03:20:59.439Z,3.03
2023-04-08T03:23:26.548Z,2.90
2023-04-08T03:25:53.555Z,3.00
2023-04-08T03:28:20.660Z,2.90
2023-04-08T03:30:47.730Z,3.00
2023-04-08T03:33:14.480Z,3.15
2023-04-08T03:35:41.706Z,2.70
2023-04-08T03:38:08.909Z,3.53
2023-04-08T03:40:35.712Z,3.13
2023-04-08T03:43:02.616Z,3.20
2023-04-08T03:45:29.727Z,2.85
2023-04-08T03:47:57.366Z,3.20
2023-04-08T03:50:24.429Z,3.03
2023-04-08T03:52:51.183Z,2.58
2023-04-08T03:55:18.173Z,3.35
2023-04-08T03:57:45.973Z,2.78
2023-04-08T04:00:13.562Z,3.17
2023-04-08T04:02:40.528Z,2.78
2023-04-08T04:05:08.763Z,3.17
2023-04-08T04:07:35.641Z,2.97
2023-04-08T04:10:02.623Z,3.17
2023-04-08T04:12:30.619Z,3.00
2023-04-08T04:14:57.672Z,3.15
2023-04-08T04:17:24.770Z,2.55
2023-04-08T04:20:05.403Z,3.00
2023-04-08T04:22:32.702Z,3.10
2023-04-08T04:24:59.833Z,3.33
2023-04-08T04:27:26.793Z,3.08
2023-04-08T04:29:53.826Z,3.03
2023-04-08T04:32:20.867Z,2.97
2023-04-08T04:34:47.904Z,3.47
2023-04-08T04:37:21.689Z,2.80
2023-04-08T04:39:48.408Z,2.85
2023-04-08T04:42:15.786Z,2.85
2023-04-08T04:44:42.693Z,2.95
2023-04-08T04:47:09.729Z,3.40
2023-04-08T04:49:37.117Z,2.83
2023-04-08T04:52:05.311Z,2.60
2023-04-08T04:54:32.191Z,3.03
2023-04-08T04:56:59.440Z,2.95
2023-04-08T04:59:26.513Z,2.92
2023-04-08T05:01:53.642Z,3.08
2023-04-08T05:04:20.622Z,3.10
2023-04-08T05:06:47.505Z,3.00
2023-04-08T05:09:14.381Z,2.72
2023-04-08T05:11:41.465Z,3.13
2023-04-08T05:14:08.609Z,3.05
2023-04-08T05:16:35.552Z,2.53
2023-04-08T05:19:02.525Z,2.67
2023-04-08T05:21:29.440Z,2.70
2023-04-08T05:23:56.499Z,2.35
2023-04-08T05:26:26.600Z,2.53
2023-04-08T05:29:02.228Z,2.30
2023-04-08T05:31:29.322Z,2.45
2023-04-08T05:33:56.304Z,2.50
2023-04-08T05:36:23.363Z,2.70
2023-04-08T05:38:50.633Z,2.67
2023-04-08T05:41:18.195Z,2.00
2023-04-08T05:43:44.993Z,2.50
2023-04-08T05:46:11.786Z,2.28
2023-04-08T05:48:38.820Z,2.03
2023-04-08T05:51:05.790Z,1.88
2023-04-08T05:53:32.715Z,2.28
2023-04-08T05:55:59.602Z,2.00
2023-04-08T05:58:26.792Z,1.77
2023-04-08T06:00:55.735Z,1.42
2023-04-08T06:03:22.841Z,1.70
2023-04-08T06:05:50.125Z,1.50
2023-04-08T06:08:17.069Z,1.50
2023-04-08T06:10:51.184Z,1.48
2023-04-08T06:13:18.542Z,1.70
2023-04-08T06:15:45.288Z,1.65
2023-04-08T06:18:12.335Z,1.50
2023-04-08T06:20:39.228Z,1.50
2023-04-08T06:23:06.958Z,1.60
2023-04-08T06:25:34.292Z,1.17
2023-04-08T06:28:01.310Z,1.58
2023-04-08T06:30:28.255Z,1.33
2023-04-08T06:32:55.456Z,1.80
2023-04-08T06:35:22.550Z,1.52
2023-04-08T06:37:49.440Z,5.80
2023-04-08T06:40:16.390Z,1.20
2023-04-08T06:42:44.711Z,1.30
2023-04-08T06:45:11.743Z,1.92
2023-04-08T06:47:38.558Z,1.20
2023-04-08T06:50:06.161Z,1.42
2023-04-08T06:52:33.009Z,1.40
2023-04-08T06:54:59.872Z,1.40
2023-04-08T06:57:27.391Z,1.25
2023-04-08T06:59:54.345Z,1.48
2023-04-08T07:02:22.323Z,1.63
2023-04-08T07:04:49.760Z,1.20
2023-04-08T07:07:16.808Z,1.30
2023-04-08T07:09:46.154Z,1.60
2023-04-08T07:12:13.405Z,1.50
2023-04-08T07:14:40.613Z,1.23
2023-04-08T07:17:07.670Z,1.33
2023-04-08T07:19:34.938Z,1.48
2023-04-08T07:22:02.213Z,1.40
2023-04-08T07:24:28.961Z,1.80
2023-04-08T07:26:57.142Z,1.52
2023-04-08T07:29:24.144Z,1.30
2023-04-08T07:31:52.722Z,1.30
2023-04-08T07:34:20.229Z,1.25
2023-04-08T07:36:47.087Z,1.20
2023-04-08T07:39:14.087Z,1.30
2023-04-08T07:41:41.092Z,1.13
2023-04-08T07:44:08.815Z,1.58
2023-04-08T07:46:39.683Z,1.00
2023-04-08T07:49:06.859Z,1.27
2023-04-08T07:51:33.811Z,1.42
2023-04-08T07:54:00.727Z,1.42
2023-04-08T07:56:27.600Z,1.00
2023-04-08T07:58:55.119Z,1.10
2023-04-08T08:01:23.266Z,1.05
2023-04-08T08:03:52.354Z,2.00
2023-04-08T08:06:20.091Z,1.30
2023-04-08T08:08:47.332Z,1.30
2023-04-08T08:11:14.365Z,1.40
2023-04-08T08:13:41.470Z,0.95
2023-04-08T08:16:11.590Z,1.80
2023-04-08T08:18:40.607Z,1.45
2023-04-08T08:21:08.484Z,1.00
2023-04-08T08:23:35.447Z,1.00
2023-04-08T08:26:10.293Z,0.93
2023-04-08T08:31:06.433Z,1.20
2023-04-08T08:33:33.717Z,1.00
2023-04-08T08:36:00.950Z,0.98
2023-04-08T08:38:28.163Z,1.10
2023-04-08T08:40:57.788Z,1.30
2023-04-08T08:43:25.796Z,0.95
2023-04-08T08:45:52.825Z,1.40
2023-04-08T08:48:20.008Z,1.38
2023-04-08T08:50:46.781Z,0.85
2023-04-08T08:53:13.741Z,1.38
2023-04-08T08:56:05.781Z,1.10
2023-04-08T08:58:28.767Z,1.00
2023-04-08T09:00:56.128Z,1.15
2023-04-08T09:03:28.445Z,1.38
2023-04-08T09:06:03.950Z,1.42
2023-04-08T09:11:16.623Z,0.98
2023-04-08T09:13:45.419Z,1.20
2023-04-08T09:16:15.313Z,0.90
2023-04-08T09:18:44.798Z,1.10
2023-04-08T09:21:13.484Z,1.00
2023-04-08T09:23:44.291Z,1.05
2023-04-08T09:26:13.803Z,0.90
2023-04-08T09:28:42.143Z,0.70
2023-04-08T09:31:23.499Z,0.70
2023-04-08T09:33:53.618Z,0.70
2023-04-08T09:36:20.513Z,0.82
2023-04-08T09:38:48.226Z,1.15
2023-04-08T09:41:16.861Z,1.20
2023-04-08T09:43:51.901Z,0.80
2023-04-08T09:46:25.991Z,1.45
2023-04-08T09:48:59.512Z,0.80
2023-04-08T09:51:34.280Z,0.57
2023-04-08T09:54:03.860Z,0.80
2023-04-08T09:56:44.012Z,0.70
2023-04-08T09:59:24.176Z,0.85
2023-04-08T10:01:54.499Z,0.90
2023-04-08T10:04:36.696Z,1.13
2023-04-08T10:07:07.094Z,1.10
2023-04-08T10:09:34.928Z,1.13
2023-04-08T10:12:03.441Z,0.60
2023-04-08T10:14:30.514Z,0.80
2023-04-08T10:17:28.942Z,1.27
2023-04-08T10:19:55.799Z,0.50
2023-04-08T10:22:28.747Z,1.55
2023-04-08T10:25:17.528Z,0.80
2023-04-08T10:27:45.664Z,0.90
2023-04-08T10:30:27.526Z,1.00
2023-04-08T10:33:00.048Z,0.80
2023-04-08T10:35:36.765Z,0.80
2023-04-08T10:38:04.059Z,0.50
2023-04-08T10:40:39.696Z,0.63
2023-04-08T10:43:06.670Z,0.77
2023-04-08T10:45:34.221Z,2.30
2023-04-08T10:48:29.161Z,0.90
2023-04-08T10:51:00.446Z,0.83
2023-04-08T10:53:37.128Z,0.60
2023-04-08T10:56:08.850Z,0.90
2023-04-08T10:58:39.612Z,0.60
2023-04-08T11:01:10.277Z,1.15
2023-04-08T11:03:37.535Z,0.63
2023-04-08T11:06:05.073Z,0.88
2023-04-08T11:08:33.436Z,1.08
2023-04-08T11:11:02.302Z,1.23
2023-04-08T11:13:29.516Z,0.90
2023-04-08T11:15:58.563Z,0.98
2023-04-08T11:18:26.209Z,0.80
2023-04-08T11:20:54.082Z,1.00
2023-04-08T11:23:22.995Z,1.00
2023-04-08T11:25:51.001Z,0.75
2023-04-08T11:28:18.362Z,0.68
2023-04-08T11:30:46.245Z,0.50
2023-04-08T11:33:13.729Z,0.60
2023-04-08T11:35:42.130Z,1.02
2023-04-08T11:38:10.048Z,0.40
2023-04-08T11:40:37.108Z,0.50
2023-04-08T11:43:15.736Z,1.20
2023-04-08T11:45:43.014Z,1.50
2023-04-08T11:48:14.810Z,0.93
2023-04-08T11:50:42.902Z,0.73
2023-04-08T11:53:20.907Z,1.08
2023-04-08T11:55:49.114Z,0.52
2023-04-08T11:58:16.557Z,0.55
2023-04-08T12:00:44.645Z,1.00
2023-04-08T12:03:12.423Z,0.50
2023-04-08T12:05:39.744Z,0.90
2023-04-08T12:08:06.967Z,0.73
2023-04-08T12:10:33.741Z,0.60
2023-04-08T12:13:01.746Z,0.65
2023-04-08T12:15:28.816Z,1.33
2023-04-08T12:18:00.622Z,0.40
2023-04-08T12:20:27.664Z,0.73
2023-04-08T12:22:54.701Z,0.60
2023-04-08T12:25:21.743Z,0.43
2023-04-08T12:27:48.758Z,0.52
2023-04-08T12:30:16.647Z,0.50
2023-04-08T12:32:46.122Z,0.65
2023-04-08T12:35:13.165Z,0.70
2023-04-08T12:37:40.144Z,1.20
2023-04-08T12:40:07.663Z,1.05
2023-04-08T12:42:35.316Z,0.90
2023-04-08T12:45:02.829Z,1.13
2023-04-08T12:47:29.675Z,0.60
2023-04-08T12:49:56.567Z,0.95
2023-04-08T12:52:24.255Z,0.80
2023-04-08T12:54:51.181Z,1.00
2023-04-08T12:57:18.213Z,1.35
2023-04-08T12:59:45.204Z,0.50
2023-04-08T13:02:12.160Z,0.85
2023-04-08T13:04:39.088Z,0.75
2023-04-08T13:07:07.723Z,0.90
2023-04-08T13:09:34.970Z,0.85
2023-04-08T13:12:01.753Z,0.98
2023-04-08T13:14:29.215Z,1.30
2023-04-08T13:16:56.169Z,1.10
2023-04-08T13:19:23.130Z,1.10
2023-04-08T13:21:49.876Z,0.98
2023-04-08T13:24:17.096Z,0.80
2023-04-08T13:26:43.873Z,0.80
2023-04-08T13:29:11.128Z,0.90
2023-04-08T13:31:38.143Z,1.30
2023-04-08T13:34:04.832Z,1.00
2023-04-08T13:36:32.448Z,0.80
2023-04-08T13:38:59.229Z,0.73
2023-04-08T13:41:26.296Z,0.98
2023-04-08T13:43:53.838Z,0.80
2023-04-08T13:46:20.759Z,0.70
2023-04-08T13:48:47.829Z,0.57
2023-04-08T13:51:14.902Z,0.80
2023-04-08T13:53:41.928Z,0.90
2023-04-08T13:56:08.966Z,0.75
2023-04-08T13:58:37.708Z,1.20
2023-04-08T14:01:04.894Z,0.70
2023-04-08T14:03:31.895Z,0.70
2023-04-08T14:06:01.585Z,0.65
2023-04-08T14:08:28.838Z,1.00
2023-04-08T14:10:56.945Z,0.52
2023-04-08T14:13:24.366Z,0.90
2023-04-08T14:15:53.832Z,0.57
2023-04-08T14:18:20.909Z,0.90
2023-04-08T14:20:47.684Z,0.77
2023-04-08T14:23:15.101Z,0.57
2023-04-08T14:25:42.012Z,0.75
2023-04-08T14:28:08.871Z,0.73
2023-04-08T14:30:37.871Z,0.68
2023-04-08T14:33:07.834Z,0.68
2023-04-08T14:35:35.062Z,0.68
2023-04-08T14:38:02.035Z,0.77
2023-04-08T14:40:28.862Z,0.60
2023-04-08T14:42:55.972Z,0.77
2023-04-08T14:45:22.821Z,0.90
2023-04-08T14:47:49.648Z,0.70
2023-04-08T14:50:17.060Z,0.60
2023-04-08T14:52:45.471Z,0.73
2023-04-08T14:55:12.403Z,1.00
2023-04-08T14:57:39.244Z,0.82
2023-04-08T15:00:07.624Z,0.90
2023-04-08T15:02:34.708Z,0.80
2023-04-08T15:05:01.621Z,0.80
2023-04-08T15:07:28.733Z,0.80
2023-04-08T15:09:56.652Z,1.27
2023-04-08T15:12:24.544Z,0.57
2023-04-08T15:14:51.366Z,0.70
2023-04-08T15:17:18.281Z,0.73
2023-04-08T15:19:45.320Z,0.65
2023-04-08T15:22:12.985Z,0.60
2023-04-08T15:24:39.952Z,0.70
2023-04-08T15:27:07.915Z,0.82
2023-04-08T15:29:34.656Z,0.73
2023-04-08T15:32:01.587Z,0.50
2023-04-08T15:34:28.643Z,0.70
2023-04-08T15:36:58.625Z,0.77
2023-04-08T15:39:25.721Z,0.85
2023-04-08T15:41:52.759Z,0.93
2023-04-08T15:44:19.818Z,1.02
2023-04-08T15:46:46.819Z,0.63
2023-04-08T15:49:13.760Z,0.70
2023-04-08T15:51:44.461Z,1.23
2023-04-08T15:54:12.084Z,0.68
2023-04-08T15:56:38.976Z,0.75
2023-04-08T15:59:05.864Z,0.85
2023-04-08T16:01:33.498Z,0.77
2023-04-08T16:04:01.339Z,0.77
2023-04-08T16:06:28.590Z,0.85
2023-04-08T16:08:56.905Z,0.80
2023-04-08T16:11:25.387Z,0.60
2023-04-08T16:13:53.001Z,1.00
2023-04-08T16:16:20.076Z,1.10
2023-04-08T16:21:34.245Z,2.35
2023-04-08T16:24:01.748Z,1.48
2023-04-08T16:26:29.013Z,1.08
2023-04-08T16:28:55.977Z,2.47
2023-04-08T16:31:22.955Z,1.05
2023-04-08T16:33:50.056Z,2.30
2023-04-08T16:36:17.349Z,4.75
2023-04-08T16:38:44.376Z,2.42
2023-04-08T16:41:11.543Z,1.98
2023-04-08T16:43:38.456Z,3.20
2023-04-08T16:46:13.129Z,2.47
2023-04-08T16:48:41.402Z,1.63
2023-04-08T16:51:08.443Z,3.38
2023-04-08T16:53:35.936Z,2.90
2023-04-08T16:56:02.924Z,2.42
2023-04-08T16:58:29.928Z,4.72
2023-04-08T17:00:56.754Z,3.75
2023-04-08T17:03:23.799Z,3.40
2023-04-08T17:05:50.801Z,2.83
2023-04-08T17:08:18.922Z,1.38
2023-04-08T17:10:45.999Z,2.85
2023-04-08T17:13:14.776Z,3.50
2023-04-08T17:15:41.936Z,2.10
2023-04-08T17:18:08.841Z,1.65
2023-04-08T17:20:36.222Z,2.15
2023-04-08T17:23:03.031Z,1.98
2023-04-08T17:25:29.798Z,2.28
2023-04-08T17:27:56.859Z,2.00
2023-04-08T17:30:23.770Z,3.85
2023-04-08T17:32:50.799Z,6.53
2023-04-08T17:35:17.792Z,2.83
2023-04-08T17:37:44.553Z,3.90
2023-04-08T17:40:11.660Z,1.70
2023-04-08T17:42:38.512Z,1.70
2023-04-08T17:45:06.063Z,3.33
2023-04-08T17:47:32.920Z,2.20
2023-04-08T17:49:59.683Z,2.25
2023-04-08T17:52:26.945Z,3.25
2023-04-08T17:54:54.260Z,3.75
2023-04-08T17:57:21.184Z,5.50
2023-04-08T17:59:47.848Z,4.30
2023-04-08T18:02:14.917Z,3.33
2023-04-08T18:04:42.537Z,4.20
2023-04-08T18:07:09.482Z,3.60
2023-04-08T18:09:36.532Z,3.70
2023-04-08T18:12:03.321Z,3.45
2023-04-08T18:14:30.273Z,5.43
2023-04-08T18:16:57.035Z,5.50
2023-04-08T18:19:26.518Z,5.53
2023-04-08T18:21:53.551Z,5.03
2023-04-08T18:24:21.528Z,6.68
2023-04-08T18:26:57.766Z,3.10
2023-04-08T18:29:30.885Z,9.00
2023-04-08T18:31:57.546Z,6.65
2023-04-08T18:34:24.882Z,5.78
2023-04-08T18:36:51.747Z,7.00
2023-04-08T18:39:18.888Z,13.07
2023-04-08T18:41:45.925Z,7.45
2023-04-08T18:44:13.273Z,6.00
2023-04-08T18:46:40.223Z,6.45
2023-04-08T18:49:07.367Z,5.93
2023-04-08T18:51:34.312Z,8.55
2023-04-08T18:54:01.543Z,6.60
2023-04-08T18:56:28.439Z,4.53
2023-04-08T18:58:55.308Z,6.05
2023-04-08T19:01:22.326Z,6.32
2023-04-08T19:03:49.576Z,8.15
2023-04-08T19:06:17.573Z,5.55
2023-04-08T19:08:45.533Z,7.70
2023-04-08T19:11:14.025Z,6.90
2023-04-08T19:13:41.940Z,6.63
2023-04-08T19:16:08.866Z,3.72
2023-04-08T19:18:35.974Z,7.75
2023-04-08T19:21:03.605Z,3.00
2023-04-08T19:23:30.804Z,4.18
2023-04-08T19:25:57.559Z,15.88
2023-04-08T19:28:24.553Z,4.55
2023-04-08T19:30:51.642Z,4.25
2023-04-08T19:33:18.465Z,5.22
2023-04-08T19:35:45.509Z,5.18
2023-04-08T19:38:12.854Z,5.35
2023-04-08T19:40:40.585Z,5.10
2023-04-08T19:43:07.472Z,7.28
2023-04-08T19:45:34.486Z,4.60
2023-04-08T19:48:01.541Z,3.47
2023-04-08T19:50:28.389Z,3.47
2023-04-08T19:52:55.203Z,6.43
2023-04-08T19:55:22.321Z,4.90
2023-04-08T19:57:49.203Z,4.35
2023-04-08T20:00:16.373Z,5.28
2023-04-08T20:02:44.086Z,4.05
2023-04-08T20:05:16.450Z,5.38
2023-04-08T20:07:44.095Z,5.15
2023-04-08T20:10:12.542Z,3.33
2023-04-08T20:12:41.003Z,5.47
2023-04-08T20:15:23.743Z,5.53
2023-04-08T20:17:51.546Z,5.95
2023-04-08T20:20:18.662Z,6.07
2023-04-08T20:22:46.659Z,4.15
2023-04-08T20:25:13.827Z,3.15
2023-04-08T20:27:41.531Z,3.35
2023-04-08T20:30:09.507Z,3.40
2023-04-08T20:32:38.017Z,2.88
2023-04-08T20:35:05.496Z,2.58
2023-04-08T20:37:33.524Z,2.60
2023-04-08T20:40:03.307Z,4.72
2023-04-08T20:42:30.299Z,4.07
2023-04-08T20:44:57.287Z,4.15
2023-04-08T20:47:25.029Z,4.68
2023-04-08T20:49:52.440Z,5.57
2023-04-08T20:52:20.739Z,4.18
2023-04-08T20:54:47.689Z,3.83
2023-04-08T20:57:14.622Z,5.20
2023-04-08T20:59:41.555Z,6.43
2023-04-08T21:02:10.932Z,5.30
2023-04-08T21:04:37.984Z,4.07
2023-04-08T21:07:04.844Z,4.15
2023-04-08T21:09:31.820Z,6.10
2023-04-08T21:11:58.663Z,4.80
2023-04-08T21:14:25.594Z,3.42
2023-04-08T21:16:52.641Z,4.38
2023-04-08T21:19:19.492Z,3.50
2023-04-08T21:21:46.837Z,4.55
2023-04-08T21:24:13.810Z,3.92
2023-04-08T21:26:40.877Z,3.38
2023-04-08T21:29:07.897Z,3.60
2023-04-08T21:31:34.967Z,2.80
2023-04-08T21:34:01.785Z,3.67
2023-04-08T21:36:28.801Z,3.92
2023-04-08T21:38:57.097Z,4.03
2023-04-08T21:41:24.595Z,4.90
2023-04-08T21:43:51.590Z,3.10
2023-04-08T21:46:18.694Z,3.13
2023-04-08T21:48:46.011Z,3.53
2023-04-08T21:51:17.264Z,4.05
2023-04-08T21:53:44.922Z,3.38
2023-04-08T21:56:12.826Z,3.83
2023-04-08T21:58:40.358Z,4.53
2023-04-08T22:01:07.939Z,3.45
2023-04-08T22:03:35.028Z,3.08
2023-04-08T22:06:02.302Z,4.05
2023-04-08T22:08:29.273Z,4.22
2023-04-08T22:10:56.128Z,3.45
2023-04-08T22:13:23.137Z,3.75
2023-04-08T22:15:51.137Z,3.50
2023-04-08T22:18:20.671Z,2.90
2023-04-08T22:20:47.662Z,3.38
2023-04-08T22:23:14.944Z,3.28
2023-04-08T22:25:41.903Z,5.95
2023-04-08T22:28:08.869Z,3.53
2023-04-08T22:30:36.574Z,2.97
2023-04-08T22:33:03.669Z,3.65
2023-04-08T22:35:30.764Z,2.97
2023-04-08T22:37:57.743Z,3.30
2023-04-08T22:40:24.736Z,6.25
2023-04-08T22:42:51.648Z,5.10
2023-04-08T22:45:18.586Z,4.55
2023-04-08T22:47:45.656Z,4.60
2023-04-08T22:50:12.757Z,4.53
2023-04-08T22:52:40.132Z,3.22
2023-04-08T22:55:07.570Z,3.80
2023-04-08T22:57:34.907Z,5.30
2023-04-08T23:00:03.837Z,3.67
2023-04-08T23:02:31.733Z,4.47
2023-04-08T23:04:58.736Z,3.88
2023-04-08T23:07:25.687Z,3.90
2023-04-08T23:09:52.572Z,6.35
2023-04-08T23:12:19.967Z,3.35
2023-04-08T23:14:47.194Z,3.75
2023-04-08T23:17:14.069Z,3.92
2023-04-08T23:19:42.621Z,3.70
2023-04-08T23:22:12.539Z,3.53
2023-04-08T23:24:39.616Z,4.00
2023-04-08T23:27:06.845Z,3.30
2023-04-08T23:29:33.768Z,3.17
2023-04-08T23:32:00.905Z,3.35
2023-04-08T23:34:27.898Z,4.40
2023-04-08T23:36:54.966Z,3.83
2023-04-08T23:39:21.991Z,3.75
2023-04-08T23:41:48.792Z,4.00
2023-04-08T23:44:15.747Z,3.67
2023-04-08T23:46:42.765Z,4.53
2023-04-08T23:49:09.641Z,3.65
2023-04-08T23:51:39.013Z,3.22
2023-04-08T23:54:06.134Z,3.00
2023-04-08T23:56:33.243Z,3.22
2023-04-08T23:59:00.203Z,3.38
